EST,Max TemperatureF,Mean TemperatureF,Min TemperatureF,Max Dew PointF,MeanDew PointF,Min DewpointF,Max Humidity, Mean Humidity, Min Humidity, Max Sea Level PressureIn, Mean Sea Level PressureIn, Min Sea Level PressureIn, Max VisibilityMiles, Mean VisibilityMiles, Min VisibilityMiles, Max Wind SpeedMPH, Mean Wind SpeedMPH, Max Gust SpeedMPH,PrecipitationIn, CloudCover, Events, WindDirDegrees
2013-1-1,44,41,37,43,36,23,100,77,54,30.10,30.01,29.97,10,6,2,15,3,18,0.29,8,Rain,333
2013-1-2,45,41,37,43,36,32,92,81,70,30.14,30.04,29.92,10,10,7,21,9,26,0.03,6,Rain,344
2013-1-3,41,35,29,37,32,25,100,80,59,30.30,30.15,30.08,10,7,2,18,10,24,0.00,6,,338
2013-1-4,42,35,27,25,20,16,78,56,34,30.38,30.32,30.25,10,10,10,22,12,30,0.00,0,,344
2013-1-5,48,36,24,32,21,17,75,52,29,30.39,30.31,30.21,10,10,10,17,6,22,T,2,Rain,112
2013-1-6,48,42,36,36,32,28,85,69,53,30.19,30.14,30.05,10,10,10,24,11,31,0.00,3,,340
2013-1-7,66,49,34,30,25,22,65,44,12,30.38,30.31,30.21,10,10,10,20,9,25,0.00,0,,36
2013-1-8,53,46,39,39,36,31,87,71,53,30.41,30.36,30.31,10,10,9,9,2,,0.00,2,,157
2013-1-9,50,47,43,46,44,39,100,92,83,30.48,30.42,30.36,10,7,0,10,4,13,T,7,Fog,337
2013-1-10,63,52,41,51,44,39,100,90,62,30.51,30.45,30.32,10,5,0,10,1,,0.01,5,Fog-Rain,153
2013-1-11,58,53,47,57,50,46,100,97,93,30.34,30.22,30.14,10,6,2,13,7,16,0.51,8,Rain,170
2013-1-12,70,62,53,60,56,53,100,84,68,30.17,30.12,30.07,10,8,1,12,5,15,T,5,Rain,233
2013-1-13,68,61,53,58,55,53,100,84,68,30.11,30.07,30.03,10,10,3,21,9,26,0.07,5,Rain,167
2013-1-14,60,53,45,59,53,45,100,95,90,30.20,30.11,30.03,10,6,2,25,9,30,1.01,8,Rain,353
2013-1-15,53,49,45,52,48,44,100,95,89,30.14,30.08,30.01,10,4,1,13,6,17,1.20,8,Rain,165
2013-1-16,56,51,45,54,50,44,100,93,86,30.03,29.98,29.94,10,6,2,13,4,16,0.36,8,Rain,265
2013-1-17,52,43,33,52,42,28,100,91,82,30.21,29.95,29.81,10,6,1,26,13,35,2.23,8,Rain,351
2013-1-18,49,39,29,29,23,16,92,60,28,30.50,30.41,30.23,10,10,10,21,7,26,0.00,0,,346
2013-1-19,55,40,24,28,25,17,92,57,22,30.46,30.33,30.17,10,10,10,14,3,17,0.00,0,,172
2013-1-20,57,43,28,31,28,23,92,64,35,30.16,30.12,30.05,10,10,10,18,6,23,0.00,0,,351
2013-1-21,51,38,24,30,21,11,92,60,28,30.10,30.05,29.97,10,10,10,20,7,26,0.00,0,,354
2013-1-22,32,26,20,11,2,-6,54,38,21,30.25,30.17,30.02,10,10,10,20,12,29,0.00,0,,348
2013-1-23,45,33,21,22,12,1,75,54,33,30.33,30.21,30.06,10,10,10,13,6,15,0.00,2,,328
2013-1-24,39,31,23,26,13,0,88,56,24,30.44,30.20,29.99,10,10,10,25,11,39,0.00,0,,353
2013-1-25,37,29,20,36,20,3,96,70,44,30.45,30.20,30.03,10,10,7,18,8,25,0.01,7,Rain,140
2013-1-26,47,38,28,36,28,21,100,69,37,30.35,30.20,30.08,10,10,9,21,12,26,0.00,3,,338
2013-1-27,42,33,23,30,25,21,92,74,55,30.50,30.43,30.35,10,9,6,13,5,16,0.01,5,Rain,151
2013-1-28,64,49,33,48,38,29,92,72,52,30.42,30.33,30.20,10,10,9,20,5,28,0.00,3,,167
2013-1-29,71,53,35,57,45,34,100,74,47,30.23,30.15,29.98,10,7,1,20,4,25,0.09,4,Rain,181
2013-1-30,64,55,46,61,55,39,100,89,78,30.02,29.67,29.47,10,7,0,33,13,45,2.76,8,Fog-Rain,192
2013-1-31,46,38,29,39,22,15,73,54,34,30.02,29.86,29.55,10,10,10,30,9,39,T,2,Rain,322